createdAt,value
2023-03-22T00:03:37.465Z,2.10
2023-03-22T00:07:44.236Z,2.47
2023-03-22T00:11:51.170Z,1.67
2023-03-22T00:15:59.762Z,2.22
2023-03-22T00:20:07.235Z,1.90
2023-03-22T00:24:13.909Z,2.10
2023-03-22T00:28:21.000Z,1.30
2023-03-22T00:32:27.865Z,1.60
2023-03-22T00:36:34.512Z,1.70
2023-03-22T00:40:41.983Z,1.20
2023-03-22T00:44:48.645Z,0.90
2023-03-22T00:48:55.579Z,1.40
2023-03-22T00:53:02.289Z,0.70
2023-03-22T00:57:09.027Z,0.82
2023-03-22T01:01:17.402Z,0.90
2023-03-22T01:05:24.086Z,0.80
2023-03-22T01:09:33.682Z,0.82
2023-03-22T01:13:41.868Z,0.98
2023-03-22T01:17:48.760Z,0.50
2023-03-22T01:21:55.672Z,0.75
2023-03-22T01:26:02.973Z,0.47
2023-03-22T01:30:10.702Z,0.63
2023-03-22T01:34:18.029Z,0.60
2023-03-22T01:38:24.739Z,1.00
2023-03-22T01:42:31.382Z,0.60
2023-03-22T01:46:38.882Z,0.60
2023-03-22T01:50:58.641Z,0.60
2023-03-22T01:55:09.301Z,0.50
2023-03-22T01:59:16.095Z,0.52
2023-03-22T02:03:54.739Z,0.60
2023-03-22T02:08:02.825Z,0.90
2023-03-22T02:12:30.586Z,1.15
2023-03-22T02:17:12.783Z,0.70
2023-03-22T02:21:25.235Z,0.80
2023-03-22T02:29:59.827Z,1.13
2023-03-22T02:34:32.745Z,1.13
2023-03-22T02:39:13.759Z,1.63
2023-03-22T02:43:46.196Z,2.00
2023-03-22T02:48:16.927Z,2.85
2023-03-22T02:52:31.803Z,2.42
2023-03-22T02:56:48.165Z,3.65
2023-03-22T03:01:01.001Z,4.05
2023-03-22T03:05:10.175Z,4.75
2023-03-22T03:09:19.330Z,3.72
2023-03-22T03:13:26.061Z,5.07
2023-03-22T03:17:57.403Z,4.68
2023-03-22T03:22:36.475Z,5.28
2023-03-22T03:26:46.218Z,5.90
2023-03-22T03:31:03.468Z,6.40
2023-03-22T03:35:57.191Z,6.82
2023-03-22T03:40:11.268Z,6.72
2023-03-22T03:44:19.282Z,6.07
2023-03-22T03:48:32.141Z,6.93
2023-03-22T03:52:38.886Z,7.75
2023-03-22T03:56:47.855Z,6.53
2023-03-22T04:00:54.609Z,5.75
2023-03-22T04:05:01.457Z,6.63
2023-03-22T04:09:08.387Z,6.60
2023-03-22T04:13:15.304Z,6.30
2023-03-22T04:17:23.007Z,5.68
2023-03-22T04:21:29.711Z,5.20
2023-03-22T04:25:37.963Z,5.13
2023-03-22T04:29:48.324Z,5.10
2023-03-22T04:33:55.022Z,4.68
2023-03-22T04:38:01.698Z,4.40
2023-03-22T04:42:08.401Z,5.63
2023-03-22T04:46:15.084Z,4.13
2023-03-22T04:50:21.756Z,3.28
2023-03-22T04:54:28.503Z,4.00
2023-03-22T04:58:38.829Z,3.38
2023-03-22T05:02:45.523Z,3.20
2023-03-22T05:06:52.306Z,2.85
2023-03-22T05:11:05.131Z,2.78
2023-03-22T05:15:11.771Z,1.90
2023-03-22T05:19:22.376Z,2.58
2023-03-22T05:23:29.147Z,2.78
2023-03-22T05:27:38.878Z,2.42
2023-03-22T05:31:45.581Z,2.13
2023-03-22T05:35:52.523Z,2.72
2023-03-22T05:39:59.216Z,1.67
2023-03-22T05:44:05.930Z,2.67
2023-03-22T05:48:12.692Z,3.53
2023-03-22T05:52:19.785Z,1.90
2023-03-22T05:56:26.628Z,1.75
2023-03-22T06:00:33.313Z,1.80
2023-03-22T06:04:41.582Z,2.28
2023-03-22T06:08:48.270Z,1.65
2023-03-22T06:12:55.376Z,1.40
2023-03-22T06:17:02.211Z,1.90
2023-03-22T06:21:08.882Z,1.70
2023-03-22T06:25:15.702Z,1.95
2023-03-22T06:29:22.351Z,1.70
2023-03-22T06:33:29.003Z,1.40
2023-03-22T06:37:35.739Z,1.35
2023-03-22T06:41:42.375Z,0.85
2023-03-22T06:45:49.251Z,1.00
2023-03-22T06:49:55.909Z,1.88
2023-03-22T06:54:04.538Z,1.20
2023-03-22T06:58:11.262Z,1.17
2023-03-22T07:02:17.978Z,1.80
2023-03-22T07:06:25.330Z,0.80
2023-03-22T07:10:32.060Z,1.00
2023-03-22T07:14:38.792Z,0.90
2023-03-22T07:18:45.576Z,1.60
2023-03-22T07:22:52.232Z,1.27
2023-03-22T07:26:58.890Z,1.05
2023-03-22T07:31:09.901Z,0.98
2023-03-22T07:35:18.929Z,1.00
2023-03-22T07:39:25.767Z,0.70
2023-03-22T07:43:37.123Z,0.88
2023-03-22T07:47:51.075Z,0.68
2023-03-22T07:51:57.799Z,1.70
2023-03-22T07:56:05.118Z,0.70
2023-03-22T08:00:12.228Z,0.80
2023-03-22T08:04:20.899Z,0.73
2023-03-22T08:08:27.895Z,0.80
2023-03-22T08:12:34.981Z,1.85
2023-03-22T08:16:44.016Z,1.35
2023-03-22T08:20:58.783Z,0.98
2023-03-22T08:25:05.859Z,0.88
2023-03-22T08:29:12.506Z,0.77
2023-03-22T08:33:21.960Z,1.33
2023-03-22T08:37:28.608Z,0.75
2023-03-22T08:41:35.525Z,1.13
2023-03-22T08:45:42.756Z,1.13
2023-03-22T08:49:49.800Z,1.02
2023-03-22T08:54:00.194Z,0.65
2023-03-22T08:58:06.964Z,0.70
2023-03-22T09:02:13.718Z,0.80
2023-03-22T09:06:20.540Z,0.85
2023-03-22T09:10:29.019Z,1.20
2023-03-22T09:14:36.220Z,0.98
2023-03-22T09:18:43.533Z,0.93
2023-03-22T09:22:50.926Z,2.22
2023-03-22T09:26:58.563Z,1.50
2023-03-22T09:31:08.600Z,1.02
2023-03-22T09:35:15.322Z,1.00
2023-03-22T09:39:22.566Z,1.77
2023-03-22T09:43:39.743Z,1.10
2023-03-22T09:47:51.147Z,1.20
2023-03-22T09:51:58.793Z,1.13
2023-03-22T09:56:27.597Z,1.08
2023-03-22T10:00:48.259Z,0.47
2023-03-22T10:05:12.335Z,1.33
2023-03-22T10:09:46.338Z,0.95
2023-03-22T10:14:14.919Z,1.58
2023-03-22T10:18:26.192Z,0.88
2023-03-22T10:22:36.572Z,0.50
2023-03-22T10:26:47.225Z,1.88
2023-03-22T10:30:56.374Z,0.65
2023-03-22T10:35:03.230Z,0.50
2023-03-22T10:39:31.455Z,0.60
2023-03-22T10:43:40.658Z,0.75
2023-03-22T10:48:00.370Z,0.80
2023-03-22T10:52:25.960Z,0.80
2023-03-22T10:56:32.696Z,0.68
2023-03-22T11:00:49.175Z,0.60
2023-03-22T11:04:58.947Z,1.00
2023-03-22T11:09:19.940Z,0.50
2023-03-22T11:13:26.778Z,0.65
2023-03-22T11:17:37.585Z,1.25
2023-03-22T11:21:45.448Z,0.70
2023-03-22T11:25:59.126Z,0.50
2023-03-22T11:30:22.724Z,1.17
2023-03-22T11:34:31.619Z,0.60
2023-03-22T11:38:40.797Z,0.80
2023-03-22T11:42:52.012Z,0.90
2023-03-22T11:47:01.045Z,1.05
2023-03-22T11:51:13.997Z,0.80
2023-03-22T11:55:20.949Z,0.60
2023-03-22T11:59:30.662Z,0.60
2023-03-22T12:03:41.244Z,0.60
2023-03-22T12:07:52.107Z,0.60
2023-03-22T12:12:01.700Z,1.02
2023-03-22T12:16:14.380Z,0.40
2023-03-22T12:20:55.072Z,0.47
2023-03-22T12:25:03.416Z,0.40
2023-03-22T12:29:18.732Z,0.30
2023-03-22T12:33:32.750Z,0.30
2023-03-22T12:37:42.369Z,0.60
2023-03-22T12:41:52.840Z,0.85
2023-03-22T12:46:03.037Z,0.40
2023-03-22T12:50:17.402Z,0.50
2023-03-22T12:54:26.671Z,0.47
2023-03-22T12:58:33.324Z,0.50
2023-03-22T13:02:46.584Z,0.30
2023-03-22T13:06:56.748Z,1.27
2023-03-22T13:11:05.319Z,1.88
2023-03-22T13:15:41.823Z,0.50
2023-03-22T13:19:53.536Z,1.10
2023-03-22T13:24:04.601Z,1.05
2023-03-22T13:28:22.721Z,0.60
2023-03-22T13:32:33.368Z,0.70
2023-03-22T13:36:40.182Z,0.60
2023-03-22T13:41:09.021Z,0.40
2023-03-22T13:45:31.999Z,0.57
2023-03-22T13:49:54.358Z,0.65
2023-03-22T13:54:13.411Z,0.85
2023-03-22T13:58:53.848Z,0.60
2023-03-22T14:03:05.823Z,0.70
2023-03-22T14:07:33.714Z,0.40
2023-03-22T14:11:52.730Z,0.57
2023-03-22T14:16:22.084Z,0.95
2023-03-22T14:20:35.763Z,1.17
